Aérodrome :
LOGIN :

S'inscrire | Disclaimer

   EN    FR    IT 

 










Légende :    VFR   VFR Marginal   IFR   IFR Intensif   IFR Très Intensif
Visi : 
Plafond : 
>= 8 km
>= 3000ft
5 à 8 km
1000 à 3000 ft
1500m à 5 km
500 à 1000 ft
800 à 1500m
200 à 500 ft
< 800m
< 200 ft
Symboles :   Orages  Brouillard  Fortes neiges  Fortes précipitations  Vent > 20 kt
SIGMETs :   Divers  Orages  Givrage  Turbulence  Onde Orograph.  Cendres Volcan.






- Altitude de l'aérodrome : 1649 ft
- Code IATA : HHN


EDFH - Frankfurt-Hahn Rhineland-Palatinate

DERNIER METAR :
  • 111820Z 12006KT 050V180 9999 SCT080CB 25/15 Q1016

METARs EXPIRÉS :
  • 111750Z 15010KT 9999 FEW080CB 27/13 Q1016
  • 111720Z 13010KT 9999 FEW080CB 28/13 Q1016
  • 111650Z 14009KT 120V190 9999 FEW080CB 29/12 Q1016
  • 111620Z 16013KT 9999 VCTS FEW080CB 28/14 Q1016

TAF TAF EDFH
Valide du 11 à 18h jusqu'au 12 à 18h UTC


111700Z 1118/1218 12008KT CAVOK
PROB30
TEMPO 1118/1120 16015G35KT TSRA SCT060CB
PROB30
TEMPO 1211/1217 18020G35KT TSRA SCT060CB
TEMPO 1215/1218 18008KT



MET'MAP, la Météo Aéronautique d'un coup d'oeil ! - Copyright ORBIFLY Décembre 2007 - Disclaimer

ORBIFLY MET'MAP TEAM :

Programmation & Développement : Alexandra Zaïnal
Sur une idée originale de : Baudouin d'Aumeries
Assistance à la programmation : Marc-Olivier Méhu
Soutien technique & logistique : Manuel Goepfert

Contact : metmap@orbifly.com




SOURCES & CREDITS :

   NOAA